Time;durP1;ratioP1;P1;durP2;ratioP2;P2;SDS_P1;SDS_P2;PMS_P1;PMS_P2;Temp;Humidity;BMP_temperature;BMP_pressure;BME280_temperature;BME280_humidity;BME280_pressure;Samples;Min_cycle;Max_cycle;Signal;HPM_P1;HPM_P2
2023/06/17 00:02:05;;;;;;;;;;;;;;;23.53;47.89;101326.44;5070381;28;20296;-84
2023/06/17 00:04:30;;;;;;;;;;;;;;;23.53;47.57;101329.19;5088001;28;20093;-83
2023/06/17 00:06:56;;;;;;;;;;;;;;;23.49;48.22;101329.00;5084216;28;19924;-84
2023/06/17 00:09:22;;;;;;;;;;;;;;;23.48;48.06;101323.84;5082721;28;19926;-84
2023/06/17 00:11:47;;;;;;;;;;;;;;;23.47;48.22;101322.25;5084333;28;19916;-84
2023/06/17 00:14:14;;;;;;;;;;;;;;;23.48;47.77;101315.66;5082796;28;19923;-84
2023/06/17 00:16:43;;;;;;;;;;;;;;;23.48;47.86;101313.72;5085203;28;20379;-85
2023/06/17 00:19:15;;;;;;;;;;;;;;;23.48;47.96;101312.91;5085816;28;20007;-83
2023/06/17 00:21:42;;;;;;;;;;;;;;;23.45;48.36;101313.56;5089003;28;19963;-84
2023/06/17 00:24:07;;;;;;;;;;;;;;;23.43;47.86;101313.06;5082115;28;19920;-84
2023/06/17 00:26:32;;;;;;;;;;;;;;;23.43;47.93;101305.69;5081963;28;20306;-85
2023/06/17 00:28:57;;;;;;;;;;;;;;;23.43;47.91;101305.69;5082929;28;19924;-85
2023/06/17 00:31:23;;;;;;;;;;;;;;;23.43;47.85;101311.16;5075730;28;19921;-84
2023/06/17 00:33:48;;;;;;;;;;;;;;;23.34;47.99;101307.63;5080934;28;19913;-84
2023/06/17 00:36:13;;;;;;;;;;;;;;;23.30;48.04;101300.34;5083271;28;19916;-84
2023/06/17 00:38:39;;;;;;;;;;;;;;;23.30;48.12;101303.09;5086208;28;20475;-83
2023/06/17 00:41:04;;;;;;;;;;;;;;;23.35;47.97;101305.69;5081443;28;20630;-83
2023/06/17 00:43:29;;;;;;;;;;;;;;;23.35;47.80;101309.22;5080422;28;19920;-84
2023/06/17 00:45:55;;;;;;;;;;;;;;;23.36;47.48;101305.34;5082367;28;19919;-84
2023/06/17 00:48:20;;;;;;;;;;;;;;;23.38;47.77;101310.50;5086858;28;20472;-84
2023/06/17 00:50:46;;;;;;;;;;;;;;;23.38;47.66;101305.03;5087188;28;20371;-84
2023/06/17 00:53:11;;;;;;;;;;;;;;;23.38;47.56;101303.09;5082554;28;19916;-83
2023/06/17 00:55:39;;;;;;;;;;;;;;;23.38;47.81;101311.31;5086323;28;20007;-84
2023/06/17 00:58:06;;;;;;;;;;;;;;;23.38;47.57;101314.03;5078227;28;20735;-84
2023/06/17 01:00:31;;;;;;;;;;;;;;;23.38;47.71;101302.31;5076734;28;19923;-83
2023/06/17 01:02:58;;;;;;;;;;;;;;;23.38;47.71;101307.78;5080199;28;19933;-83
2023/06/17 01:05:24;;;;;;;;;;;;;;;23.39;47.65;101301.19;5078408;28;19962;-84
2023/06/17 01:08:10;;;;;;;;;;;;;;;23.39;47.71;101309.38;5079983;28;19924;-83
2023/06/17 01:10:42;;;;;;;;;;;;;;;23.38;47.49;101302.31;5059954;28;19924;-84
2023/06/17 01:13:09;;;;;;;;;;;;;;;23.38;47.54;101307.78;5079392;28;19916;-83
2023/06/17 01:15:34;;;;;;;;;;;;;;;23.35;47.51;101303.75;5078948;28;19920;-84
2023/06/17 01:18:00;;;;;;;;;;;;;;;23.30;47.67;101309.34;5079768;28;19923;-84
2023/06/17 01:20:26;;;;;;;;;;;;;;;23.21;47.93;101308.56;5075854;28;20423;-84
2023/06/17 01:22:55;;;;;;;;;;;;;;;23.18;48.05;101301.81;5081640;28;20029;-84
2023/06/17 01:25:20;;;;;;;;;;;;;;;23.19;47.95;101303.41;5085689;28;20339;-83
2023/06/17 01:27:49;;;;;;;;;;;;;;;23.23;47.89;101305.50;5081827;28;20462;-83
2023/06/17 01:30:14;;;;;;;;;;;;;;;23.19;47.95;101305.34;5059016;28;19924;-83
2023/06/17 01:32:39;;;;;;;;;;;;;;;23.16;47.93;101304.06;5085546;28;19917;-83
2023/06/17 01:35:07;;;;;;;;;;;;;;;23.18;47.95;101304.53;5080831;28;19927;-84
2023/06/17 01:37:39;;;;;;;;;;;;;;;23.21;47.91;101305.81;5083983;28;20001;-84
2023/06/17 01:40:06;;;;;;;;;;;;;;;23.23;47.64;101302.78;5075207;28;19924;-83
2023/06/17 01:42:34;;;;;;;;;;;;;;;23.22;47.74;101304.69;5062773;28;19922;-84
2023/06/17 01:45:01;;;;;;;;;;;;;;;23.21;47.82;101303.91;5074813;28;20384;-83
2023/06/17 01:47:26;;;;;;;;;;;;;;;23.20;47.81;101296.81;5078143;28;20364;-84
2023/06/17 01:49:51;;;;;;;;;;;;;;;23.24;48.01;101298.91;5076390;28;19920;-85
2023/06/17 01:52:17;;;;;;;;;;;;;;;23.17;48.11;101296.66;5076619;28;19931;-85
2023/06/17 01:54:42;;;;;;;;;;;;;;;23.14;48.13;101303.53;5074246;28;19917;-84
2023/06/17 01:57:08;;;;;;;;;;;;;;;23.09;47.97;101305.63;5077626;28;20597;-84
2023/06/17 01:59:33;;;;;;;;;;;;;;;23.09;48.08;101297.44;5078788;28;19927;-84
2023/06/17 02:01:58;;;;;;;;;;;;;;;23.07;48.07;101296.94;5077925;28;19923;-84
2023/06/17 02:04:24;;;;;;;;;;;;;;;23.08;48.07;101299.38;5071065;28;19920;-84
2023/06/17 02:06:51;;;;;;;;;;;;;;;23.07;48.37;101297.75;5081224;28;19947;-84
2023/06/17 02:09:17;;;;;;;;;;;;;;;23.07;48.04;101299.69;5080071;28;19917;-85
2023/06/17 02:11:42;;;;;;;;;;;;;;;23.06;48.03;101301.63;5077287;28;19923;-84
2023/06/17 02:14:07;;;;;;;;;;;;;;;23.07;47.96;101294.22;5079963;28;19997;-84
2023/06/17 02:16:32;;;;;;;;;;;;;;;23.08;47.87;101299.38;5076893;28;19922;-85
2023/06/17 02:18:58;;;;;;;;;;;;;;;23.06;47.73;101309.00;5081562;28;20449;-84
2023/06/17 02:21:23;;;;;;;;;;;;;;;23.05;47.88;101308.19;5077761;28;19916;-85
2023/06/17 02:23:49;;;;;;;;;;;;;;;23.08;47.71;101299.38;5083079;28;19928;-85
2023/06/17 02:26:17;;;;;;;;;;;;;;;23.03;48.27;101301.44;5077271;28;19916;-86
2023/06/17 02:28:43;;;;;;;;;;;;;;;23.01;47.67;101301.78;5060521;28;19947;-85
2023/06/17 02:31:08;;;;;;;;;;;;;;;23.02;47.82;101306.09;5078253;28;20505;-85
2023/06/17 02:33:34;;;;;;;;;;;;;;;23.02;47.79;101306.09;5083310;28;20202;-85
2023/06/17 02:35:59;;;;;;;;;;;;;;;23.03;47.96;101301.44;5081509;28;20009;-85
2023/06/17 02:38:24;;;;;;;;;;;;;;;22.97;47.95;101302.69;5064528;28;19916;-86
2023/06/17 02:40:50;;;;;;;;;;;;;;;22.95;47.78;101310.41;5080623;28;19939;-85
2023/06/17 02:43:15;;;;;;;;;;;;;;;22.94;47.85;101306.06;5080647;28;19928;-85
2023/06/17 02:45:40;;;;;;;;;;;;;;;22.90;48.05;101301.25;5083690;28;20417;-85
2023/06/17 02:48:06;;;;;;;;;;;;;;;22.91;48.07;101304.78;5077925;28;19923;-85
2023/06/17 02:50:31;;;;;;;;;;;;;;;22.92;47.70;101304.47;5082689;28;19924;-85
2023/06/17 02:52:56;;;;;;;;;;;;;;;22.95;47.67;101300.28;5080179;28;20306;-84
2023/06/17 02:55:22;;;;;;;;;;;;;;;23.01;47.57;101306.44;5078787;28;19917;-85
2023/06/17 02:57:48;;;;;;;;;;;;;;;23.04;47.84;101303.06;5064731;28;19927;-85
2023/06/17 03:00:13;;;;;;;;;;;;;;;23.04;47.83;101298.41;5084094;28;19916;-85
2023/06/17 03:02:38;;;;;;;;;;;;;;;23.05;47.78;101297.28;5060457;28;19927;-86
2023/06/17 03:05:06;;;;;;;;;;;;;;;22.95;48.40;101304.94;5079867;28;19916;-85
2023/06/17 03:07:35;;;;;;;;;;;;;;;22.91;48.00;101302.06;5079446;28;19931;-86
2023/06/17 03:10:01;;;;;;;;;;;;;;;22.96;48.19;101301.91;5081633;28;19943;-86
2023/06/17 03:12:26;;;;;;;;;;;;;;;23.00;48.12;101308.34;5081265;28;20391;-85
2023/06/17 03:14:51;;;;;;;;;;;;;;;23.01;48.16;101301.78;5082417;28;19924;-86
2023/06/17 03:17:17;;;;;;;;;;;;;;;23.04;48.14;101297.59;5076080;28;19919;-85
2023/06/17 03:19:43;;;;;;;;;;;;;;;23.02;48.64;101303.38;5081787;28;19985;-86
2023/06/17 03:22:09;;;;;;;;;;;;;;;23.02;47.94;101300.66;5080004;28;19954;-85
2023/06/17 03:24:34;;;;;;;;;;;;;;;23.06;48.19;101300.81;5078588;28;19951;-85
2023/06/17 03:26:59;;;;;;;;;;;;;;;23.09;48.15;101308.38;5077010;28;20406;-84
2023/06/17 03:29:24;;;;;;;;;;;;;;;23.13;47.89;101301.94;5076100;28;19922;-85
2023/06/17 03:31:51;;;;;;;;;;;;;;;23.15;48.03;101302.41;5075014;28;19977;-85
2023/06/17 03:34:16;;;;;;;;;;;;;;;23.16;48.17;101305.94;5081245;28;19916;-85
2023/06/17 03:36:42;;;;;;;;;;;;;;;23.17;48.13;101307.59;5078536;28;19923;-86
2023/06/17 03:39:07;;;;;;;;;;;;;;;23.21;47.45;101305.81;5088067;28;20318;-85
2023/06/17 03:41:32;;;;;;;;;;;;;;;23.24;47.71;101310.66;5087141;28;19999;-85
2023/06/17 03:43:57;;;;;;;;;;;;;;;23.26;47.72;101311.13;5063614;28;20007;-85
2023/06/17 03:46:23;;;;;;;;;;;;;;;23.29;47.89;101302.28;5085508;28;19915;-85
2023/06/17 03:48:48;;;;;;;;;;;;;;;23.30;47.87;101303.09;5081012;28;19959;-84
2023/06/17 03:51:14;;;;;;;;;;;;;;;23.34;47.73;101301.31;5085354;28;20415;-85
2023/06/17 03:53:40;;;;;;;;;;;;;;;23.37;47.56;101300.69;5084175;28;19959;-85
2023/06/17 03:56:06;;;;;;;;;;;;;;;23.42;47.43;101304.06;5083589;28;20376;-85
2023/06/17 03:58:31;;;;;;;;;;;;;;;23.45;47.49;101305.34;5087288;28;19930;-85
2023/06/17 04:00:56;;;;;;;;;;;;;;;23.46;47.66;101313.22;5082537;28;19915;-85
2023/06/17 04:03:23;;;;;;;;;;;;;;;23.47;47.83;101303.91;5082493;28;20395;-85
2023/06/17 04:05:49;;;;;;;;;;;;;;;23.47;47.82;101312.09;5083792;28;19923;-85
2023/06/17 04:08:14;;;;;;;;;;;;;;;23.49;47.26;101314.50;5085225;28;19951;-86
2023/06/17 04:10:40;;;;;;;;;;;;;;;23.51;47.66;101318.53;5081187;28;19917;-85
2023/06/17 04:13:05;;;;;;;;;;;;;;;23.54;47.60;101313.56;5080425;28;20383;-86
2023/06/17 04:15:30;;;;;;;;;;;;;;;23.56;47.59;101320.34;5089753;28;20417;-84
2023/06/17 04:17:55;;;;;;;;;;;;;;;23.57;47.44;101321.97;5081517;28;19920;-84
2023/06/17 04:20:25;;;;;;;;;;;;;;;23.59;47.42;101319.72;5078428;28;19941;-85
2023/06/17 04:22:50;;;;;;;;;;;;;;;23.60;47.45;101317.78;5081315;28;20023;-85
2023/06/17 04:25:20;;;;;;;;;;;;;;;23.62;47.37;101318.25;5084395;28;20007;-85
2023/06/17 04:27:46;;;;;;;;;;;;;;;23.62;47.19;101319.06;5080507;28;19938;-86
2023/06/17 04:30:13;;;;;;;;;;;;;;;23.63;46.97;101315.19;5082901;28;19920;-85
2023/06/17 04:32:39;;;;;;;;;;;;;;;23.67;47.34;101321.63;5067842;28;19959;-86
2023/06/17 04:35:04;;;;;;;;;;;;;;;23.67;47.41;101320.81;5082120;28;20572;-86
2023/06/17 04:37:32;;;;;;;;;;;;;;;23.69;47.51;101313.09;5082614;28;19977;-85
2023/06/17 04:39:58;;;;;;;;;;;;;;;23.72;47.10;101318.75;5084672;28;19916;-85
2023/06/17 04:42:24;;;;;;;;;;;;;;;23.78;46.81;101306.50;5090085;28;20420;-85
2023/06/17 04:44:49;;;;;;;;;;;;;;;23.88;47.01;101315.50;5077541;28;20011;-85
2023/06/17 04:47:19;;;;;;;;;;;;;;;23.93;47.15;101318.88;5083278;28;19920;-86
2023/06/17 04:49:47;;;;;;;;;;;;;;;23.94;47.38;101319.69;5086199;28;19939;-85
2023/06/17 04:52:13;;;;;;;;;;;;;;;23.97;47.17;101324.50;5080855;28;19924;-85
2023/06/17 04:54:39;;;;;;;;;;;;;;;23.97;47.20;101327.25;5063939;28;19916;-85
2023/06/17 04:57:05;;;;;;;;;;;;;;;23.99;47.14;101327.72;5084898;28;19943;-85
2023/06/17 04:59:30;;;;;;;;;;;;;;;24.01;47.29;101328.19;5088938;28;20458;-85
2023/06/17 05:01:56;;;;;;;;;;;;;;;24.00;47.36;101330.13;5079731;28;20033;-85
2023/06/17 05:04:21;;;;;;;;;;;;;;;24.00;47.13;101323.84;5081043;28;19920;-86
2023/06/17 05:06:47;;;;;;;;;;;;;;;24.00;47.32;101329.34;5080415;28;19960;-85
2023/06/17 05:09:12;;;;;;;;;;;;;;;24.00;47.48;101332.88;5083606;28;19923;-85
2023/06/17 05:11:38;;;;;;;;;;;;;;;24.05;47.19;101332.69;5082653;28;19958;-84
2023/06/17 05:14:04;;;;;;;;;;;;;;;24.06;46.80;101333.53;5084369;28;20034;-85
2023/06/17 05:16:30;;;;;;;;;;;;;;;24.08;47.18;101331.28;5085815;28;20016;-85
2023/06/17 05:18:55;;;;;;;;;;;;;;;24.10;47.23;101329.81;5080017;28;20081;-84
2023/06/17 05:21:21;;;;;;;;;;;;;;;24.13;46.94;101333.81;5084011;28;20494;-85
2023/06/17 05:23:46;;;;;;;;;;;;;;;24.12;47.33;101329.47;5081905;28;20337;-85
2023/06/17 05:26:11;;;;;;;;;;;;;;;24.09;47.15;101332.88;5084350;28;19916;-85
2023/06/17 05:28:37;;;;;;;;;;;;;;;24.08;47.15;101334.00;5080544;28;19916;-84
2023/06/17 05:31:02;;;;;;;;;;;;;;;24.01;47.34;101329.00;5084420;28;19916;-84
2023/06/17 05:33:29;;;;;;;;;;;;;;;23.98;47.44;101334.31;5079933;28;20288;-85
2023/06/17 05:35:54;;;;;;;;;;;;;;;23.94;47.66;101323.22;5079321;28;19920;-84
2023/06/17 05:38:20;;;;;;;;;;;;;;;23.96;47.55;101331.13;5080774;28;19992;-85
2023/06/17 05:40:45;;;;;;;;;;;;;;;23.95;47.59;101330.31;5080118;28;19920;-84
2023/06/17 05:43:10;;;;;;;;;;;;;;;23.95;47.13;101329.50;5082383;28;19920;-85
2023/06/17 05:45:36;;;;;;;;;;;;;;;24.00;47.08;101323.84;5084157;28;20287;-84
2023/06/17 05:48:01;;;;;;;;;;;;;;;24.05;47.25;101331.88;5083284;28;19961;-84
2023/06/17 05:50:26;;;;;;;;;;;;;;;24.10;46.88;101329.00;5080754;28;20367;-85
2023/06/17 05:52:51;;;;;;;;;;;;;;;24.16;46.16;101335.09;5086371;28;19991;-85
2023/06/17 05:55:17;;;;;;;;;;;;;;;24.20;46.61;101334.13;5082067;28;19916;-84
2023/06/17 05:57:42;;;;;;;;;;;;;;;24.24;46.43;101340.56;5082981;28;19916;-85
2023/06/17 06:00:08;;;;;;;;;;;;;;;24.28;46.52;101332.50;5083761;28;20364;-84
2023/06/17 06:02:33;;;;;;;;;;;;;;;24.29;46.12;101334.94;5081871;28;20490;-85
2023/06/17 06:04:59;;;;;;;;;;;;;;;24.33;46.05;101338.63;5082897;28;19925;-85
2023/06/17 06:07:24;;;;;;;;;;;;;;;24.36;46.07;101340.72;5084912;28;19958;-84
2023/06/17 06:09:49;;;;;;;;;;;;;;;24.41;46.39;101346.00;5082624;28;20282;-85
2023/06/17 06:12:14;;;;;;;;;;;;;;;24.44;46.34;101339.09;5085567;28;20358;-85
2023/06/17 06:14:40;;;;;;;;;;;;;;;24.45;46.54;101346.19;5083974;28;20399;-85
2023/06/17 06:17:05;;;;;;;;;;;;;;;24.44;46.32;101346.50;5086047;28;19912;-85
2023/06/17 06:19:30;;;;;;;;;;;;;;;24.44;46.78;101347.31;5085993;28;19919;-84
2023/06/17 06:21:56;;;;;;;;;;;;;;;24.45;46.73;101348.13;5085877;28;19923;-84
2023/06/17 06:24:21;;;;;;;;;;;;;;;24.46;46.98;101350.53;5085892;28;19926;-84
2023/06/17 06:26:46;;;;;;;;;;;;;;;24.41;46.87;101351.47;5079084;28;20588;-85
2023/06/17 06:29:13;;;;;;;;;;;;;;;24.33;46.96;101349.59;5085348;28;19924;-84
2023/06/17 06:31:42;;;;;;;;;;;;;;;24.32;46.79;101356.19;5083879;28;19951;-84
2023/06/17 06:34:07;;;;;;;;;;;;;;;24.38;46.08;101360.38;5085648;28;19982;-85
2023/06/17 06:36:33;;;;;;;;;;;;;;;24.48;46.23;101356.47;5079751;28;19916;-85
2023/06/17 06:38:58;;;;;;;;;;;;;;;24.54;46.09;101365.31;5087365;28;19923;-85
2023/06/17 06:41:23;;;;;;;;;;;;;;;24.56;46.47;101357.56;5079551;28;19919;-85
2023/06/17 06:43:48;;;;;;;;;;;;;;;24.59;46.38;101365.13;5084362;28;20009;-84
2023/06/17 06:46:14;;;;;;;;;;;;;;;24.61;46.27;101360.16;5083258;28;19912;-85
2023/06/17 06:48:39;;;;;;;;;;;;;;;24.64;45.79;101362.22;5085744;28;19923;-84
2023/06/17 06:51:04;;;;;;;;;;;;;;;24.66;46.07;101359.97;5084133;28;20390;-84
2023/06/17 06:53:30;;;;;;;;;;;;;;;24.69;46.31;101367.53;5085035;28;19923;-84
2023/06/17 06:55:55;;;;;;;;;;;;;;;24.70;46.40;101366.38;5080962;28;19946;-85
2023/06/17 06:58:20;;;;;;;;;;;;;;;24.75;46.33;101370.88;5085632;28;20447;-84
2023/06/17 07:00:46;;;;;;;;;;;;;;;24.83;46.41;101370.06;5085439;28;19923;-84
2023/06/17 07:03:11;;;;;;;;;;;;;;;24.94;45.96;101376.75;5085040;28;20015;-85
2023/06/17 07:05:36;;;;;;;;;;;;;;;25.01;45.70;101371.59;5083442;28;19916;-84
2023/06/17 07:08:02;;;;;;;;;;;;;;;25.01;45.57;101371.59;5079657;28;19922;-84
2023/06/17 07:10:27;;;;;;;;;;;;;;;25.00;45.57;101373.56;5088108;28;20474;-85
2023/06/17 07:12:53;;;;;;;;;;;;;;;25.03;45.56;101371.28;5087523;28;19927;-85
2023/06/17 07:15:18;;;;;;;;;;;;;;;25.14;45.51;101375.25;5088560;28;19970;-84
2023/06/17 07:17:43;;;;;;;;;;;;;;;25.19;45.58;101370.38;5090839;28;19958;-84
2023/06/17 07:20:09;;;;;;;;;;;;;;;25.20;45.30;101376.66;5087944;28;20395;-84
2023/06/17 07:22:34;;;;;;;;;;;;;;;25.22;45.37;101374.41;5088865;28;19916;-84
2023/06/17 07:25:00;;;;;;;;;;;;;;;25.26;45.51;101381.63;5086330;28;19970;-84
2023/06/17 07:27:25;;;;;;;;;;;;;;;25.37;45.31;101376.56;5088656;28;19920;-84
2023/06/17 07:29:50;;;;;;;;;;;;;;;25.51;45.40;101381.81;5082704;28;19924;-87
2023/06/17 07:32:16;;;;;;;;;;;;;;;25.65;45.05;101376.84;5089119;28;19939;-84
2023/06/17 07:34:41;;;;;;;;;;;;;;;25.81;44.85;101372.38;5084641;28;20294;-85
2023/06/17 07:37:06;;;;;;;;;;;;;;;25.94;44.39;101373.25;5082928;28;19916;-85
2023/06/17 07:39:31;;;;;;;;;;;;;;;26.04;44.30;101369.28;5088434;28;19916;-85
2023/06/17 07:41:57;;;;;;;;;;;;;;;26.12;44.38;101380.19;5086002;28;20568;-86
2023/06/17 07:44:22;;;;;;;;;;;;;;;26.25;44.06;101372.00;5087748;28;19931;-86
2023/06/17 07:46:47;;;;;;;;;;;;;;;26.35;44.20;101371.56;5087221;28;19935;-85
2023/06/17 07:49:13;;;;;;;;;;;;;;;26.46;43.74;101372.75;5086904;28;19924;-85
2023/06/17 07:51:38;;;;;;;;;;;;;;;26.58;43.64;101378.28;5085495;28;19987;-85
2023/06/17 07:54:06;;;;;;;;;;;;;;;26.61;43.77;101376.78;5087991;28;19947;-85
2023/06/17 07:56:31;;;;;;;;;;;;;;;26.65;43.69;101370.25;5082527;28;20003;-85
2023/06/17 07:58:57;;;;;;;;;;;;;;;26.75;43.15;101371.75;5083104;28;20490;-84
2023/06/17 08:01:22;;;;;;;;;;;;;;;26.83;42.99;101379.09;5083369;28;19924;-84
2023/06/17 08:03:48;;;;;;;;;;;;;;;26.92;42.78;101370.72;5081967;28;19920;-88
2023/06/17 08:06:14;;;;;;;;;;;;;;;26.98;42.81;101375.66;5082685;28;19921;-84
2023/06/17 08:08:39;;;;;;;;;;;;;;;27.01;42.57;101371.47;5084340;28;19931;-84
2023/06/17 08:11:05;;;;;;;;;;;;;;;27.02;42.87;101373.06;5079141;28;19920;-84
2023/06/17 08:13:30;;;;;;;;;;;;;;;27.07;42.88;101372.81;5067110;28;20152;-83
2023/06/17 08:15:55;;;;;;;;;;;;;;;27.17;42.85;101375.13;5082025;28;20005;-84
2023/06/17 08:18:21;;;;;;;;;;;;;;;27.33;42.74;101375.22;5080189;28;20524;-82
2023/06/17 08:20:46;;;;;;;;;;;;;;;27.45;42.32;101380.69;5078216;28;19916;-80
2023/06/17 08:23:11;;;;;;;;;;;;;;;27.53;42.50;101374.25;5076904;28;20397;-81
2023/06/17 08:25:36;;;;;;;;;;;;;;;27.72;42.10;101367.34;5067680;28;20354;-81
2023/06/17 08:28:02;;;;;;;;;;;;;;;27.93;41.93;101373.47;5082188;28;19926;-81
2023/06/17 08:30:27;;;;;;;;;;;;;;;28.12;41.14;101372.81;5081381;28;19916;-81
2023/06/17 08:32:53;;;;;;;;;;;;;;;28.29;41.70;101375.28;5061164;28;19920;-82
2023/06/17 08:35:18;;;;;;;;;;;;;;;28.52;41.30;101376.25;5084624;28;19916;-81
2023/06/17 08:37:43;;;;;;;;;;;;;;;28.75;41.06;101370.97;5083050;28;19931;-83
2023/06/17 08:40:09;;;;;;;;;;;;;;;28.87;40.49;101364.56;5082283;28;19920;-83
2023/06/17 08:42:35;;;;;;;;;;;;;;;28.80;39.70;101378.94;5077987;28;19920;-83
2023/06/17 08:45:00;;;;;;;;;;;;;;;28.77;40.47;101376.13;5078640;28;20391;-83
2023/06/17 08:47:26;;;;;;;;;;;;;;;28.74;40.46;101363.84;5084644;28;20383;-83
2023/06/17 08:49:53;;;;;;;;;;;;;;;28.81;41.02;101371.47;5073790;28;19932;-83
2023/06/17 08:52:18;;;;;;;;;;;;;;;29.01;40.64;101367.66;5083589;28;19920;-83
2023/06/17 08:54:45;;;;;;;;;;;;;;;29.26;40.54;101372.94;5074381;28;19931;-81
2023/06/17 08:57:12;;;;;;;;;;;;;;;29.48;40.51;101369.53;5074540;28;19943;-79
2023/06/17 08:59:37;;;;;;;;;;;;;;;29.63;39.62;101376.97;5077047;28;19928;-84
2023/06/17 09:02:03;;;;;;;;;;;;;;;29.65;39.58;101374.66;5078232;28;19930;-82
2023/06/17 09:04:29;;;;;;;;;;;;;;;29.59;39.74;101380.81;5077757;28;19959;-83
2023/06/17 09:06:55;;;;;;;;;;;;;;;29.50;39.85;101375.50;5081198;28;19920;-82
2023/06/17 09:09:20;;;;;;;;;;;;;;;29.52;39.60;101381.47;5074088;28;19955;-82
2023/06/17 09:11:53;;;;;;;;;;;;;;;29.57;40.00;101377.59;5076868;28;19955;-82
2023/06/17 09:14:19;;;;;;;;;;;;;;;29.74;39.81;101377.97;5077767;28;19920;-82
2023/06/17 09:16:44;;;;;;;;;;;;;;;29.91;39.07;101373.19;5074567;28;20733;-83
2023/06/17 09:19:10;;;;;;;;;;;;;;;30.04;39.35;101367.16;5074033;28;19920;-84
2023/06/17 09:21:38;;;;;;;;;;;;;;;30.27;39.44;101363.63;5076784;28;19991;-81
2023/06/17 09:24:04;;;;;;;;;;;;;;;30.50;38.83;101361.66;5083838;28;19920;-81
2023/06/17 09:26:31;;;;;;;;;;;;;;;30.70;38.41;101359.66;5082974;28;19916;-82
2023/06/17 09:29:03;;;;;;;;;;;;;;;30.91;37.76;101350.91;5080459;28;19917;-82
2023/06/17 09:31:29;;;;;;;;;;;;;;;31.10;37.84;101353.56;5081253;28;20011;-81
2023/06/17 09:33:56;;;;;;;;;;;;;;;31.29;37.83;101360.19;5078677;28;20007;-84
2023/06/17 09:36:22;;;;;;;;;;;;;;;31.44;37.67;101357.25;5083793;28;19927;-83
2023/06/17 09:38:50;;;;;;;;;;;;;;;31.71;38.03;101365.47;5083702;28;20548;-82
2023/06/17 09:41:15;;;;;;;;;;;;;;;31.90;36.88;101359.78;5079331;28;20291;-82
2023/06/17 09:43:41;;;;;;;;;;;;;;;31.93;36.58;101361.81;5083078;28;19928;-81
2023/06/17 09:46:07;;;;;;;;;;;;;;;31.87;36.72;101357.78;5077797;28;20490;-81
2023/06/17 09:48:33;;;;;;;;;;;;;;;31.88;36.96;101356.63;5077803;28;19970;-82
2023/06/17 09:50:59;;;;;;;;;;;;;;;31.93;37.06;101361.00;5083290;28;19950;-82
2023/06/17 09:53:29;;;;;;;;;;;;;;;31.93;36.68;101356.25;5079582;28;20407;-80
2023/06/17 09:55:57;;;;;;;;;;;;;;;31.85;36.59;101358.16;5081740;28;20003;-81
2023/06/17 09:58:30;;;;;;;;;;;;;;;31.73;35.70;101352.06;5081582;28;19917;-81
2023/06/17 10:01:06;;;;;;;;;;;;;;;31.68;36.74;101349.63;5075279;28;19925;-81
2023/06/17 10:03:35;;;;;;;;;;;;;;;31.57;36.47;101352.25;5048714;28;20514;-81
2023/06/17 10:06:03;;;;;;;;;;;;;;;31.52;36.86;101356.16;5074062;28;19916;-84
2023/06/17 10:08:29;;;;;;;;;;;;;;;31.54;36.87;101351.03;5078393;28;19936;-83
2023/06/17 10:10:57;;;;;;;;;;;;;;;31.65;36.93;101344.84;5076589;28;20279;-82
2023/06/17 10:13:23;;;;;;;;;;;;;;;31.86;36.93;101345.13;5075691;28;19916;-82
2023/06/17 10:15:50;;;;;;;;;;;;;;;31.94;35.67;101345.97;5078830;28;20042;-83
2023/06/17 10:18:16;;;;;;;;;;;;;;;31.81;36.36;101340.72;5076181;28;19917;-82
2023/06/17 10:20:42;;;;;;;;;;;;;;;31.78;36.75;101338.72;5079795;28;20326;-82
2023/06/17 10:23:08;;;;;;;;;;;;;;;31.80;36.12;101338.31;5073837;28;20435;-83
2023/06/17 10:25:35;;;;;;;;;;;;;;;31.82;35.85;101339.53;5078446;28;19925;-83
2023/06/17 10:28:02;;;;;;;;;;;;;;;31.77;35.85;101336.28;5079037;28;20404;-84
2023/06/17 10:30:28;;;;;;;;;;;;;;;31.70;35.72;101331.44;5076551;28;20384;-81
2023/06/17 10:32:55;;;;;;;;;;;;;;;31.64;35.87;101321.09;5074444;28;19924;-83
2023/06/17 10:35:20;;;;;;;;;;;;;;;31.60;36.44;101323.81;5073272;28;20379;-82
2023/06/17 10:37:47;;;;;;;;;;;;;;;31.60;35.89;101320.22;5063588;28;19920;-84
2023/06/17 10:40:19;;;;;;;;;;;;;;;31.64;36.37;101321.88;5078400;28;19919;-83
2023/06/17 10:43:03;;;;;;;;;;;;;;;31.80;36.12;101318.94;5078833;28;20380;-85
2023/06/17 10:45:29;;;;;;;;;;;;;;;32.02;35.71;101320.75;5076615;28;19951;-80
2023/06/17 10:48:14;;;;;;;;;;;;;;;32.33;35.21;101321.47;5082455;28;19942;-79
2023/06/17 10:50:40;;;;;;;;;;;;;;;32.69;35.67;101326.13;5085430;28;20356;-84
2023/06/17 10:53:06;;;;;;;;;;;;;;;32.92;35.23;101328.69;5078634;28;19969;-80
2023/06/17 10:55:31;;;;;;;;;;;;;;;32.95;35.03;101324.34;5082156;28;19946;-82
2023/06/17 10:57:57;;;;;;;;;;;;;;;32.91;33.94;101331.84;5080020;28;19984;-81
2023/06/17 11:00:22;;;;;;;;;;;;;;;32.78;34.14;101330.53;5082222;28;20618;-83
2023/06/17 11:02:48;;;;;;;;;;;;;;;32.64;34.74;101332.00;5079413;28;19943;-80
2023/06/17 11:05:15;;;;;;;;;;;;;;;32.57;33.84;101337.50;5083554;28;19924;-80
2023/06/17 11:07:40;;;;;;;;;;;;;;;32.39;34.18;101333.78;5083440;28;19920;-80
2023/06/17 11:10:05;;;;;;;;;;;;;;;32.22;34.97;101323.31;5078993;28;20303;-81
2023/06/17 11:12:32;;;;;;;;;;;;;;;32.08;34.36;101326.72;5085525;28;20069;-81
2023/06/17 11:14:59;;;;;;;;;;;;;;;31.97;35.21;101326.63;5077818;28;20005;-81
2023/06/17 11:17:25;;;;;;;;;;;;;;;31.82;35.13;101330.44;5075915;28;19940;-82
2023/06/17 11:19:50;;;;;;;;;;;;;;;31.62;35.16;101334.53;5078152;28;20255;-82
2023/06/17 11:22:15;;;;;;;;;;;;;;;31.53;35.41;101337.56;5077779;28;20019;-80
2023/06/17 11:24:43;;;;;;;;;;;;;;;31.39;35.74;101338.16;5075661;28;20407;-81
2023/06/17 11:27:10;;;;;;;;;;;;;;;31.31;35.69;101332.94;5077323;28;19942;-81
2023/06/17 11:29:39;;;;;;;;;;;;;;;31.20;35.19;101335.53;5074072;28;19924;-80
2023/06/17 11:32:05;;;;;;;;;;;;;;;31.10;35.58;101339.75;5078983;28;19924;-81
2023/06/17 11:34:33;;;;;;;;;;;;;;;31.03;35.94;101334.09;5075467;28;19921;-81
2023/06/17 11:37:00;;;;;;;;;;;;;;;31.07;35.48;101342.47;5076871;28;19919;-82
2023/06/17 11:39:30;;;;;;;;;;;;;;;31.08;35.73;101338.53;5078079;28;19920;-83
2023/06/17 11:42:02;;;;;;;;;;;;;;;31.09;35.54;101337.34;5076850;28;20505;-81
2023/06/17 11:44:28;;;;;;;;;;;;;;;31.09;34.46;101340.13;5076585;28;19932;-80
2023/06/17 11:46:54;;;;;;;;;;;;;;;31.20;35.81;101343.84;5076564;28;19920;-81
2023/06/17 11:49:32;;;;;;;;;;;;;;;31.36;35.54;101333.38;5074810;28;20441;-81
2023/06/17 11:52:08;;;;;;;;;;;;;;;31.57;35.22;101333.66;5074742;28;20462;-81
2023/06/17 11:54:43;;;;;;;;;;;;;;;31.80;34.77;101321.69;5076497;28;19945;-79
2023/06/17 11:57:11;;;;;;;;;;;;;;;32.13;35.54;101309.75;5064437;28;20019;-79
2023/06/17 11:59:38;;;;;;;;;;;;;;;32.40;35.12;101310.44;5077456;28;19924;-80
2023/06/17 12:02:04;;;;;;;;;;;;;;;32.69;34.33;101317.81;5077423;28;19921;-81
2023/06/17 12:04:31;;;;;;;;;;;;;;;32.98;34.21;101310.47;5072169;28;19935;-81
2023/06/17 12:06:57;;;;;;;;;;;;;;;33.11;33.76;101308.16;5080834;28;19978;-78
2023/06/17 12:09:22;;;;;;;;;;;;;;;33.17;33.03;101306.59;5078371;28;20600;-81
2023/06/17 12:11:47;;;;;;;;;;;;;;;33.14;32.66;101301.84;5073027;28;19924;-79
2023/06/17 12:14:13;;;;;;;;;;;;;;;33.08;32.79;101297.06;5074871;28;19924;-80
2023/06/17 12:16:40;;;;;;;;;;;;;;;33.07;33.45;101296.25;5078568;28;20656;-81
2023/06/17 12:19:19;;;;;;;;;;;;;;;33.18;33.02;101299.88;5078514;28;19920;-79
2023/06/17 12:21:44;;;;;;;;;;;;;;;33.09;32.02;101291.09;5079035;28;20052;-80
2023/06/17 12:24:10;;;;;;;;;;;;;;;32.90;33.29;101291.41;5076493;28;19923;-79
2023/06/17 12:26:35;;;;;;;;;;;;;;;32.88;33.08;101291.00;5074616;28;19916;-81
2023/06/17 12:29:04;;;;;;;;;;;;;;;32.87;32.20;101290.19;5080738;28;20703;-81
2023/06/17 12:31:29;;;;;;;;;;;;;;;32.91;32.88;101284.66;5075749;28;19916;-79